Time;durP1;ratioP1;P1;durP2;ratioP2;P2;SDS_P1;SDS_P2;PMS_P1;PMS_P2;Temp;Humidity;BMP_temperature;BMP_pressure;BME280_temperature;BME280_humidity;BME280_pressure;Samples;Min_cycle;Max_cycle;Signal;HPM_P1;HPM_P2
2022/06/07 00:02:04;;;;;;;;;;;;;;;27.70;39.60;99032.78;4483031;32;35102;-85
2022/06/07 00:04:32;;;;;;;;;;;;;;;27.65;39.73;99023.28;4481217;32;34667;-84
2022/06/07 00:06:59;;;;;;;;;;;;;;;27.87;38.94;99032.66;4481587;31;33598;-83
2022/06/07 00:09:26;;;;;;;;;;;;;;;27.79;39.20;99024.28;4481592;32;34033;-82
2022/06/07 00:11:54;;;;;;;;;;;;;;;27.58;39.86;99029.91;4482536;32;34434;-83
2022/06/07 00:14:21;;;;;;;;;;;;;;;27.41;40.10;99025.56;4482659;32;34903;-84
2022/06/07 00:16:48;;;;;;;;;;;;;;;27.55;39.77;99027.41;4481915;32;34331;-84
2022/06/07 00:19:16;;;;;;;;;;;;;;;27.58;39.74;99029.91;4478753;32;32470;-83
2022/06/07 00:21:43;;;;;;;;;;;;;;;27.63;39.34;99027.81;4483160;32;34403;-84
2022/06/07 00:24:10;;;;;;;;;;;;;;;27.64;39.39;99026.88;4482990;32;34282;-84
2022/06/07 00:26:39;;;;;;;;;;;;;;;27.46;39.88;99027.94;4468446;32;34390;-82
2022/06/07 00:29:06;;;;;;;;;;;;;;;27.50;39.74;99020.63;4482149;32;33992;-82
2022/06/07 00:31:34;;;;;;;;;;;;;;;27.51;39.59;99020.56;4468580;32;35255;-85
2022/06/07 00:34:02;;;;;;;;;;;;;;;27.48;39.74;99026.06;4468545;32;34575;-82
2022/06/07 00:36:29;;;;;;;;;;;;;;;27.42;39.78;99021.09;4483166;32;34313;-82
2022/06/07 00:38:56;;;;;;;;;;;;;;;27.41;39.86;99014.06;4468008;32;35164;-82
2022/06/07 00:41:24;;;;;;;;;;;;;;;27.10;40.49;99023.78;4482793;32;35606;-82
2022/06/07 00:44:30;;;;;;;;;;;;;;;27.30;40.06;99022.66;4482742;32;34424;-82
2022/06/07 00:47:00;;;;;;;;;;;;;;;27.28;39.94;99018.41;4402074;32;33111;-82
2022/06/07 00:49:33;;;;;;;;;;;;;;;27.43;39.54;99009.50;4402024;32;34856;-83
2022/06/07 00:52:00;;;;;;;;;;;;;;;27.32;39.54;99011.94;4439545;32;33999;-84
2022/06/07 00:54:29;;;;;;;;;;;;;;;27.32;39.56;99011.94;4468453;32;34285;-85
2022/06/07 00:56:57;;;;;;;;;;;;;;;27.40;39.49;99012.34;4482328;32;34514;-85
2022/06/07 00:59:27;;;;;;;;;;;;;;;27.49;39.16;99010.94;4481739;32;34176;-82
2022/06/07 01:01:54;;;;;;;;;;;;;;;27.51;39.09;99009.91;4468354;32;34238;-81
2022/06/07 01:04:23;;;;;;;;;;;;;;;27.41;39.33;99006.91;4482730;32;34612;-83
2022/06/07 01:12:23;;;;;;;;;;;;;;;27.29;39.52;98999.66;4477707;32;34421;-84
2022/06/07 01:14:51;;;;;;;;;;;;;;;27.16;39.94;98998.66;4455076;32;34422;-85
2022/06/07 01:17:19;;;;;;;;;;;;;;;27.08;40.23;99007.03;4473161;32;33536;-84
2022/06/07 01:19:47;;;;;;;;;;;;;;;27.05;40.16;98993.94;4476337;32;35000;-82
2022/06/07 01:22:15;;;;;;;;;;;;;;;26.99;40.42;99001.41;4461310;32;33957;-83
2022/06/07 01:24:42;;;;;;;;;;;;;;;27.00;40.35;98995.13;4474019;32;35083;-84
2022/06/07 01:27:10;;;;;;;;;;;;;;;26.58;41.50;98996.59;4456579;32;33277;-84
2022/06/07 01:29:38;;;;;;;;;;;;;;;26.61;41.50;98996.44;4458622;32;34214;-84
2022/06/07 01:32:06;;;;;;;;;;;;;;;26.85;40.87;98994.19;4473754;32;34514;-82
2022/06/07 01:34:33;;;;;;;;;;;;;;;26.65;41.35;98990.88;4458167;32;35039;-84
2022/06/07 01:37:01;;;;;;;;;;;;;;;26.84;40.76;98988.03;4468059;32;33448;-83
2022/06/07 01:42:15;;;;;;;;;;;;;;;27.06;40.39;98981.47;4474000;32;34284;-83
2022/06/07 01:44:43;;;;;;;;;;;;;;;27.09;40.36;98987.50;4453398;32;33975;-84
2022/06/07 01:47:12;;;;;;;;;;;;;;;26.90;40.66;98984.16;4454808;32;32682;-85
2022/06/07 01:49:40;;;;;;;;;;;;;;;26.99;40.28;98973.00;4471031;32;34094;-84
2022/06/07 01:52:08;;;;;;;;;;;;;;;26.94;40.48;98972.41;4477809;32;34170;-84
2022/06/07 01:54:36;;;;;;;;;;;;;;;26.89;40.37;98974.44;4472038;32;35344;-82
2022/06/07 01:57:05;;;;;;;;;;;;;;;26.77;40.91;98985.78;4454492;32;33631;-83
2022/06/07 01:59:33;;;;;;;;;;;;;;;27.01;40.11;98980.88;4469018;32;35150;-84
2022/06/07 02:02:00;;;;;;;;;;;;;;;27.01;40.09;98973.78;4476932;32;33988;-84
2022/06/07 02:04:28;;;;;;;;;;;;;;;27.00;40.17;98972.03;4472936;32;34808;-84
2022/06/07 02:06:55;;;;;;;;;;;;;;;26.81;40.56;98968.72;4473144;32;33715;-85
2022/06/07 02:09:26;;;;;;;;;;;;;;;26.83;40.55;98969.50;4481317;32;33965;-85
2022/06/07 02:11:54;;;;;;;;;;;;;;;26.97;40.55;98960.72;4486378;31;35255;-85
2022/06/07 02:14:21;;;;;;;;;;;;;;;26.75;40.63;98967.28;4484169;32;35305;-82
2022/06/07 02:16:49;;;;;;;;;;;;;;;26.75;40.75;98953.97;4483431;32;33832;-83
2022/06/07 02:19:17;;;;;;;;;;;;;;;26.80;40.60;98953.72;4484249;32;35094;-85
2022/06/07 02:21:45;;;;;;;;;;;;;;;26.51;41.50;98956.19;4470147;32;34204;-84
2022/06/07 02:24:12;;;;;;;;;;;;;;;26.72;41.04;98954.16;4483061;32;34093;-84
2022/06/07 02:26:44;;;;;;;;;;;;;;;26.88;40.51;98951.47;4483052;32;33621;-83
2022/06/07 02:29:18;;;;;;;;;;;;;;;26.91;40.38;98944.16;4457465;32;34906;-83
2022/06/07 02:31:52;;;;;;;;;;;;;;;26.88;40.38;98948.81;4469885;32;35442;-82
2022/06/07 02:34:19;;;;;;;;;;;;;;;26.78;40.60;98942.28;4469269;32;33552;-85
2022/06/07 02:36:47;;;;;;;;;;;;;;;26.81;40.53;98939.47;4473689;32;34518;-85
2022/06/07 02:39:14;;;;;;;;;;;;;;;26.74;40.79;98943.41;4469543;32;33933;-85
2022/06/07 02:41:42;;;;;;;;;;;;;;;26.64;41.19;98954.59;4469685;32;35280;-84
2022/06/07 02:44:09;;;;;;;;;;;;;;;26.38;41.67;98950.69;4481847;32;34492;-85
2022/06/07 02:46:36;;;;;;;;;;;;;;;26.72;41.06;98950.63;4483355;32;34726;-85
2022/06/07 02:49:04;;;;;;;;;;;;;;;26.48;41.34;98945.75;4483814;32;35064;-85
2022/06/07 02:51:32;;;;;;;;;;;;;;;26.75;40.71;98945.16;4473092;32;34084;-82
2022/06/07 02:54:04;;;;;;;;;;;;;;;26.69;40.83;98960.50;4482910;32;34352;-82
2022/06/07 02:56:31;;;;;;;;;;;;;;;26.61;40.96;98949.44;4472996;32;33583;-82
2022/06/07 02:58:59;;;;;;;;;;;;;;;26.50;41.10;98957.16;4493998;31;35610;-81
2022/06/07 03:01:28;;;;;;;;;;;;;;;26.71;40.86;98954.22;4483829;32;34074;-85
2022/06/07 03:03:58;;;;;;;;;;;;;;;26.71;40.98;98955.09;4480151;32;35116;-82
2022/06/07 03:06:26;;;;;;;;;;;;;;;26.78;40.83;98952.94;4490731;31;37044;-82
2022/06/07 03:08:54;;;;;;;;;;;;;;;26.73;40.91;98953.19;4484945;31;34186;-85
2022/06/07 03:11:22;;;;;;;;;;;;;;;26.57;41.50;98947.03;4483927;32;34037;-85
2022/06/07 03:13:50;;;;;;;;;;;;;;;26.64;41.37;98953.72;4483462;32;34396;-83
2022/06/07 03:16:18;;;;;;;;;;;;;;;26.63;41.31;98952.88;4483731;32;34252;-84
2022/06/07 03:18:46;;;;;;;;;;;;;;;26.58;41.40;98948.75;4483278;32;34246;-84
2022/06/07 03:21:14;;;;;;;;;;;;;;;26.42;41.83;98946.06;4482092;32;35208;-85
2022/06/07 03:23:43;;;;;;;;;;;;;;;26.57;41.54;98953.22;4480711;31;34549;-83
2022/06/07 03:26:12;;;;;;;;;;;;;;;26.74;41.13;98954.91;4490061;31;33487;-83
2022/06/07 03:28:40;;;;;;;;;;;;;;;26.65;41.37;98961.59;4468821;32;33773;-83
2022/06/07 03:31:09;;;;;;;;;;;;;;;26.69;41.45;98954.31;4470690;32;35170;-85
2022/06/07 03:33:36;;;;;;;;;;;;;;;26.66;41.37;98952.69;4483708;32;34585;-83
2022/06/07 03:36:05;;;;;;;;;;;;;;;26.78;41.21;98956.44;4483541;32;33696;-85
2022/06/07 03:38:34;;;;;;;;;;;;;;;26.58;41.71;98954.91;4483159;32;34734;-83
2022/06/07 03:41:03;;;;;;;;;;;;;;;26.64;41.82;98957.25;4483478;32;34316;-84
2022/06/07 03:43:30;;;;;;;;;;;;;;;26.87;41.27;98947.09;4483961;32;34134;-85
2022/06/07 03:46:06;;;;;;;;;;;;;;;26.77;41.95;98948.56;4483544;32;34072;-82
2022/06/07 03:48:34;;;;;;;;;;;;;;;27.47;41.06;98949.81;4483429;32;34116;-84
2022/06/07 03:51:02;;;;;;;;;;;;;;;28.01;39.92;98950.06;4485514;31;34412;-83
2022/06/07 03:53:30;;;;;;;;;;;;;;;28.60;38.36;98942.78;4483595;32;34578;-81
2022/06/07 03:55:57;;;;;;;;;;;;;;;28.61;38.53;98941.81;4482764;32;33526;-85
2022/06/07 03:58:25;;;;;;;;;;;;;;;28.86;38.26;98937.53;4469496;32;35104;-85
2022/06/07 04:00:55;;;;;;;;;;;;;;;29.32;37.52;98947.84;4469340;32;34322;-85
2022/06/07 04:03:23;;;;;;;;;;;;;;;29.79;36.23;98943.75;4482957;31;34468;-85
2022/06/07 04:05:51;;;;;;;;;;;;;;;29.96;36.01;98945.25;4476767;32;34420;-85
2022/06/07 04:08:19;;;;;;;;;;;;;;;30.20;35.68;98932.00;4488619;31;33968;-82
2022/06/07 04:10:53;;;;;;;;;;;;;;;30.22;35.73;98930.06;4485369;31;34951;-84
2022/06/07 04:13:21;;;;;;;;;;;;;;;30.60;34.92;98926.41;4482983;32;34372;-85
2022/06/07 04:15:50;;;;;;;;;;;;;;;30.80;34.87;98925.84;4482745;32;34420;-82
2022/06/07 04:18:18;;;;;;;;;;;;;;;30.98;34.48;98924.44;4483029;32;34531;-83
2022/06/07 04:20:46;;;;;;;;;;;;;;;31.33;34.20;98918.28;4483093;32;35659;-86
2022/06/07 04:23:16;;;;;;;;;;;;;;;31.75;33.38;98913.25;4469263;32;34415;-86
2022/06/07 04:25:43;;;;;;;;;;;;;;;31.66;33.51;98912.13;4468630;32;33476;-85
2022/06/07 04:28:12;;;;;;;;;;;;;;;31.55;33.75;98911.25;4469030;32;32868;-85
2022/06/07 04:30:44;;;;;;;;;;;;;;;31.65;33.81;98913.09;4464701;32;34429;-83
2022/06/07 04:33:15;;;;;;;;;;;;;;;32.38;33.60;98906.41;4467209;32;35388;-85
2022/06/07 04:35:44;;;;;;;;;;;;;;;32.37;33.24;98906.53;4483106;32;33485;-85
2022/06/07 04:38:12;;;;;;;;;;;;;;;31.44;33.96;98901.38;4483286;32;34991;-84
2022/06/07 04:40:41;;;;;;;;;;;;;;;30.76;34.76;98908.28;4482551;32;35112;-85
2022/06/07 04:43:11;;;;;;;;;;;;;;;30.87;34.91;98908.34;4465393;32;34504;-84
2022/06/07 04:45:39;;;;;;;;;;;;;;;32.09;33.53;98910.59;4469339;32;33652;-84
2022/06/07 04:48:07;;;;;;;;;;;;;;;30.83;35.44;98914.03;4465466;32;33937;-84
2022/06/07 04:50:35;;;;;;;;;;;;;;;31.33;34.48;98912.94;4469643;32;34129;-85
2022/06/07 04:53:04;;;;;;;;;;;;;;;32.17;32.92;98908.16;4472088;32;34131;-85
2022/06/07 04:55:31;;;;;;;;;;;;;;;31.94;33.52;98908.16;4467719;32;33479;-84
2022/06/07 04:58:00;;;;;;;;;;;;;;;32.02;34.13;98917.44;4480352;32;34930;-84
2022/06/07 05:00:28;;;;;;;;;;;;;;;32.13;33.37;98914.75;4482837;32;34955;-84
2022/06/07 05:02:55;;;;;;;;;;;;;;;30.44;35.72;98914.16;4480718;32;34307;-83
2022/06/07 05:05:23;;;;;;;;;;;;;;;31.42;34.20;98911.37;4454560;32;858297;-83
2022/06/07 05:07:50;;;;;;;;;;;;;;;30.93;34.77;98909.72;4482097;32;33839;-85
2022/06/07 05:10:18;;;;;;;;;;;;;;;30.54;35.74;98917.03;4480294;32;33744;-85
2022/06/07 05:12:46;;;;;;;;;;;;;;;31.48;34.56;98909.06;4467160;32;34086;-85
2022/06/07 05:15:13;;;;;;;;;;;;;;;32.23;33.35;98913.00;4463317;32;34489;-85
2022/06/07 05:17:41;;;;;;;;;;;;;;;32.12;33.21;98918.37;4467175;32;33964;-86
2022/06/07 05:20:09;;;;;;;;;;;;;;;32.36;32.46;98919.09;4466651;32;34224;-85
2022/06/07 05:22:37;;;;;;;;;;;;;;;30.63;35.12;98918.16;4454598;32;34578;-83
2022/06/07 05:25:08;;;;;;;;;;;;;;;30.69;35.61;98917.72;4451980;32;33382;-83
2022/06/07 05:27:39;;;;;;;;;;;;;;;29.39;38.07;98927.78;4437698;32;34792;-83
2022/06/07 05:30:09;;;;;;;;;;;;;;;29.12;38.78;98921.66;4451502;32;35105;-84
2022/06/07 05:32:37;;;;;;;;;;;;;;;29.38;37.94;98928.75;4437370;32;34650;-83
2022/06/07 05:35:05;;;;;;;;;;;;;;;30.38;36.33;98927.13;4460390;32;33458;-83
2022/06/07 05:37:34;;;;;;;;;;;;;;;30.10;36.84;98920.22;4466898;32;34827;-82
2022/06/07 05:40:04;;;;;;;;;;;;;;;29.94;36.57;98937.34;4464961;32;33836;-83
2022/06/07 05:42:32;;;;;;;;;;;;;;;30.90;35.33;98926.84;4464209;32;34268;-83
2022/06/07 05:45:05;;;;;;;;;;;;;;;31.05;35.22;98926.66;4466876;32;34446;-84
2022/06/07 05:47:33;;;;;;;;;;;;;;;31.33;34.06;98922.78;4466695;32;34088;-84
2022/06/07 05:50:01;;;;;;;;;;;;;;;31.34;33.93;98919.13;4466879;32;34825;-84
2022/06/07 05:52:29;;;;;;;;;;;;;;;31.02;34.96;98930.44;4466506;32;34531;-84
2022/06/07 05:54:57;;;;;;;;;;;;;;;31.46;34.29;98929.75;4466813;32;34481;-84
2022/06/07 05:57:25;;;;;;;;;;;;;;;30.45;35.44;98923.03;4466671;32;33505;-83
2022/06/07 05:59:52;;;;;;;;;;;;;;;31.21;34.39;98925.38;4466572;32;34046;-84
2022/06/07 06:02:20;;;;;;;;;;;;;;;30.90;34.81;98926.00;4466060;32;35374;-81
2022/06/07 06:04:48;;;;;;;;;;;;;;;31.03;34.18;98929.47;4466680;32;34010;-83
2022/06/07 06:07:15;;;;;;;;;;;;;;;31.01;34.16;98928.72;4462863;32;34031;-82
2022/06/07 06:12:31;;;;;;;;;;;;;;;29.30;36.98;98923.06;4480615;32;35125;-84
2022/06/07 06:15:00;;;;;;;;;;;;;;;29.40;37.53;98926.84;4482224;32;33506;-84
2022/06/07 06:17:28;;;;;;;;;;;;;;;31.01;34.53;98926.91;4476813;32;34995;-83
2022/06/07 06:19:56;;;;;;;;;;;;;;;30.94;34.32;98931.00;4466340;32;33831;-82
2022/06/07 06:22:24;;;;;;;;;;;;;;;30.63;34.96;98935.06;4480106;32;33995;-82
2022/06/07 06:24:51;;;;;;;;;;;;;;;30.68;34.85;98918.66;4482220;32;34565;-84
2022/06/07 06:27:19;;;;;;;;;;;;;;;30.16;35.60;98917.13;4479659;32;33765;-83
2022/06/07 06:29:47;;;;;;;;;;;;;;;31.37;33.59;98924.28;4472347;32;34382;-82
2022/06/07 06:32:14;;;;;;;;;;;;;;;29.84;35.80;98930.94;4490886;31;34197;-82
2022/06/07 06:34:44;;;;;;;;;;;;;;;30.87;34.29;98919.03;4468675;32;33493;-83
2022/06/07 06:37:11;;;;;;;;;;;;;;;30.59;34.82;98911.34;4470549;32;34015;-81
2022/06/07 06:39:39;;;;;;;;;;;;;;;31.28;34.41;98912.38;4474642;32;34525;-82
2022/06/07 06:42:07;;;;;;;;;;;;;;;31.50;33.34;98912.47;4483597;32;34241;-81
2022/06/07 06:44:46;;;;;;;;;;;;;;;31.13;33.60;98911.72;4475879;32;33348;-81
2022/06/07 06:47:17;;;;;;;;;;;;;;;31.65;33.09;98909.56;4474256;32;35212;-81
2022/06/07 06:49:45;;;;;;;;;;;;;;;31.41;33.29;98910.50;4496773;31;34037;-84
2022/06/07 06:52:12;;;;;;;;;;;;;;;31.48;33.04;98911.75;4470376;31;34415;-82
2022/06/07 06:54:40;;;;;;;;;;;;;;;31.47;32.91;98911.84;4468284;32;33775;-83
2022/06/07 06:57:08;;;;;;;;;;;;;;;30.68;34.39;98913.31;4468213;32;34159;-82
2022/06/07 06:59:36;;;;;;;;;;;;;;;29.94;34.99;98915.12;4471670;32;34403;-82
2022/06/07 07:02:04;;;;;;;;;;;;;;;31.17;33.15;98910.50;4471591;32;35174;-82
2022/06/07 07:04:33;;;;;;;;;;;;;;;31.79;32.10;98906.66;4469475;32;33445;-82
2022/06/07 07:07:03;;;;;;;;;;;;;;;32.17;32.47;98903.63;4468366;32;35029;-81
2022/06/07 07:09:31;;;;;;;;;;;;;;;32.83;31.67;98905.47;4469449;32;34547;-81
2022/06/07 07:11:58;;;;;;;;;;;;;;;33.25;31.13;98906.38;4468369;32;37837;-80
2022/06/07 07:14:28;;;;;;;;;;;;;;;33.47;29.88;98904.59;4468230;32;33740;-81
2022/06/07 07:16:56;;;;;;;;;;;;;;;33.61;29.24;98901.56;4467663;32;34704;-81
2022/06/07 07:19:24;;;;;;;;;;;;;;;33.82;28.15;98902.38;4454126;32;34177;-84
2022/06/07 07:21:53;;;;;;;;;;;;;;;33.03;29.14;98901.13;4468308;32;34442;-83
2022/06/07 07:24:21;;;;;;;;;;;;;;;33.11;28.90;98898.66;4468210;32;33677;-85
2022/06/07 07:26:49;;;;;;;;;;;;;;;32.94;29.68;98895.56;4468214;32;35119;-84
2022/06/07 07:29:19;;;;;;;;;;;;;;;34.09;28.85;98885.66;4467720;32;34385;-84
2022/06/07 07:31:47;;;;;;;;;;;;;;;32.75;30.05;98887.31;4467981;32;34086;-83
2022/06/07 07:34:16;;;;;;;;;;;;;;;32.83;30.75;98884.81;4468342;32;33441;-83
2022/06/07 07:36:45;;;;;;;;;;;;;;;32.52;30.69;98880.31;4468233;32;35057;-83
2022/06/07 07:39:22;;;;;;;;;;;;;;;33.48;28.85;98882.09;4467428;32;35194;-81
2022/06/07 07:41:51;;;;;;;;;;;;;;;33.59;29.64;98888.25;4467817;32;34276;-83
2022/06/07 07:44:19;;;;;;;;;;;;;;;32.58;30.37;98879.78;4467991;32;34002;-83
2022/06/07 07:46:47;;;;;;;;;;;;;;;33.38;28.09;98880.19;4467890;32;34846;-81
2022/06/07 07:49:16;;;;;;;;;;;;;;;32.57;29.46;98878.94;4453553;32;35264;-83
2022/06/07 07:51:45;;;;;;;;;;;;;;;32.37;30.53;98888.59;4467686;32;34492;-83
2022/06/07 07:54:13;;;;;;;;;;;;;;;31.47;32.13;98890.41;4467761;32;33533;-84
2022/06/07 07:56:41;;;;;;;;;;;;;;;33.71;29.00;98889.00;4453823;32;34267;-83
2022/06/07 07:59:10;;;;;;;;;;;;;;;32.91;28.82;98887.72;4467355;32;34205;-83
2022/06/07 08:01:38;;;;;;;;;;;;;;;32.18;30.21;98874.97;4453557;32;34302;-83
2022/06/07 08:04:06;;;;;;;;;;;;;;;32.49;29.70;98875.19;4468137;32;34240;-83
2022/06/07 08:06:35;;;;;;;;;;;;;;;32.32;30.72;98871.19;4467734;32;33650;-82
2022/06/07 08:09:03;;;;;;;;;;;;;;;32.87;31.35;98882.75;4453746;32;34089;-83
2022/06/07 08:11:33;;;;;;;;;;;;;;;32.38;29.88;98876.03;4467543;32;34142;-85
2022/06/07 08:14:01;;;;;;;;;;;;;;;31.93;30.73;98871.59;4453666;32;34398;-85
2022/06/07 08:16:28;;;;;;;;;;;;;;;31.40;31.50;98870.44;4467769;32;33990;-84
2022/06/07 08:18:55;;;;;;;;;;;;;;;31.91;31.01;98876.22;4467794;32;34298;-84
2022/06/07 08:21:25;;;;;;;;;;;;;;;31.56;32.13;98875.44;4454154;32;35282;-83
2022/06/07 08:23:54;;;;;;;;;;;;;;;32.49;30.78;98867.16;4467725;32;34249;-83
2022/06/07 08:26:23;;;;;;;;;;;;;;;33.72;29.01;98865.66;4467762;32;35020;-83
2022/06/07 08:28:50;;;;;;;;;;;;;;;32.05;30.26;98860.84;4467885;32;35275;-82
2022/06/07 08:31:18;;;;;;;;;;;;;;;32.66;29.94;98862.09;4467520;32;34604;-84
2022/06/07 08:39:19;;;;;;;;;;;;;;;32.41;29.70;98857.87;4467535;32;34563;-83
2022/06/07 08:41:56;;;;;;;;;;;;;;;32.82;30.82;98871.53;4467416;32;35060;-84
2022/06/07 08:44:42;;;;;;;;;;;;;;;32.34;30.42;98861.16;4467406;32;33084;-83
2022/06/07 08:47:28;;;;;;;;;;;;;;;33.90;28.22;98856.81;4453596;32;34346;-83
2022/06/07 08:49:55;;;;;;;;;;;;;;;32.40;29.24;98849.97;4453348;32;34099;-82
2022/06/07 08:52:26;;;;;;;;;;;;;;;31.97;30.34;98858.78;4467437;32;35154;-83
2022/06/07 08:54:55;;;;;;;;;;;;;;;31.42;30.42;98858.63;4453461;32;33722;-83
2022/06/07 08:57:24;;;;;;;;;;;;;;;32.37;29.82;98855.56;4453369;32;35152;-82
2022/06/07 08:59:52;;;;;;;;;;;;;;;32.46;29.55;98854.81;4453507;32;35404;-82
2022/06/07 09:02:23;;;;;;;;;;;;;;;32.57;28.40;98853.94;4467529;32;34591;-83
2022/06/07 09:04:51;;;;;;;;;;;;;;;32.23;29.20;98859.34;4467511;32;33887;-82
2022/06/07 09:07:19;;;;;;;;;;;;;;;32.08;30.54;98852.56;4467187;32;34322;-82
2022/06/07 09:12:39;;;;;;;;;;;;;;;32.08;29.98;98855.25;4466863;32;34126;-82
2022/06/07 09:15:14;;;;;;;;;;;;;;;31.79;28.98;98846.84;4467247;32;34378;-82
2022/06/07 09:17:52;;;;;;;;;;;;;;;32.82;27.88;98842.00;4453003;32;34341;-82
2022/06/07 09:20:20;;;;;;;;;;;;;;;31.56;29.87;98848.66;4453006;32;34463;-82
2022/06/07 09:22:54;;;;;;;;;;;;;;;31.21;30.09;98852.22;4467243;32;35306;-86
2022/06/07 09:25:25;;;;;;;;;;;;;;;30.93;30.42;98851.66;4466821;32;33587;-83
2022/06/07 09:27:52;;;;;;;;;;;;;;;31.36;30.60;98837.66;4466912;32;34100;-84
2022/06/07 09:30:27;;;;;;;;;;;;;;;32.35;30.52;98830.66;4466891;32;34401;-84
2022/06/07 09:32:55;;;;;;;;;;;;;;;32.43;29.93;98833.63;4452973;32;34619;-83
2022/06/07 09:35:36;;;;;;;;;;;;;;;32.81;29.97;98830.44;4467282;32;34358;-83
2022/06/07 09:38:05;;;;;;;;;;;;;;;33.05;29.19;98837.41;4466917;32;33840;-82
2022/06/07 09:40:37;;;;;;;;;;;;;;;33.81;27.49;98822.69;4452756;32;35149;-83
2022/06/07 09:43:11;;;;;;;;;;;;;;;33.67;28.01;98823.91;4452958;32;34368;-82
2022/06/07 09:45:47;;;;;;;;;;;;;;;33.70;28.26;98822.78;4467036;32;33838;-82
2022/06/07 09:48:36;;;;;;;;;;;;;;;33.06;29.68;98825.66;4466818;32;33978;-83
2022/06/07 09:51:20;;;;;;;;;;;;;;;32.87;29.21;98821.84;4452538;32;34468;-82
2022/06/07 09:53:56;;;;;;;;;;;;;;;34.03;27.16;98818.13;4466481;32;35223;-83
2022/06/07 09:56:29;;;;;;;;;;;;;;;34.01;26.98;98817.41;4452523;32;34452;-83
2022/06/07 09:59:16;;;;;;;;;;;;;;;33.62;27.34;98809.19;4466708;32;34081;-84
2022/06/07 10:01:44;;;;;;;;;;;;;;;33.63;27.55;98814.41;4452920;32;34041;-83
2022/06/07 10:04:18;;;;;;;;;;;;;;;34.19;26.36;98796.91;4454620;32;34573;-85
2022/06/07 10:06:50;;;;;;;;;;;;;;;33.58;25.26;98805.91;4468596;32;33846;-83
2022/06/07 10:09:30;;;;;;;;;;;;;;;34.09;25.83;98793.34;4454332;32;34143;-84
2022/06/07 10:12:01;;;;;;;;;;;;;;;34.41;25.64;98795.81;4479016;32;34401;-84
2022/06/07 10:14:47;;;;;;;;;;;;;;;34.82;25.15;98794.69;4470348;32;34121;-82
2022/06/07 10:17:14;;;;;;;;;;;;;;;34.26;25.60;98799.91;4484194;32;34199;-82
2022/06/07 10:19:51;;;;;;;;;;;;;;;33.56;27.58;98801.66;4484280;32;33818;-83
2022/06/07 10:22:18;;;;;;;;;;;;;;;32.44;28.90;98797.75;4469898;32;33839;-83
2022/06/07 10:24:59;;;;;;;;;;;;;;;33.96;27.68;98796.28;4484040;32;34562;-82
2022/06/07 10:27:35;;;;;;;;;;;;;;;33.32;28.80;98799.25;4469969;32;33565;-82
2022/06/07 10:30:08;;;;;;;;;;;;;;;33.80;26.45;98786.03;4470104;32;35187;-84
2022/06/07 10:32:52;;;;;;;;;;;;;;;32.91;28.72;98790.22;4484021;32;34928;-83
2022/06/07 10:35:39;;;;;;;;;;;;;;;33.40;28.71;98786.84;4469986;32;34539;-84
2022/06/07 10:38:13;;;;;;;;;;;;;;;34.03;27.98;98783.16;4483924;32;33069;-83
2022/06/07 10:40:43;;;;;;;;;;;;;;;34.32;26.89;98780.50;4469889;32;34779;-83
2022/06/07 10:43:18;;;;;;;;;;;;;;;33.89;27.06;98769.06;4484075;32;34934;-83
2022/06/07 10:45:46;;;;;;;;;;;;;;;34.01;27.31;98769.84;4469861;32;35137;-82
2022/06/07 10:48:18;;;;;;;;;;;;;;;33.93;27.04;98772.34;4469687;32;33508;-83
2022/06/07 10:51:01;;;;;;;;;;;;;;;33.52;26.46;98768.81;4469715;32;34841;-84
2022/06/07 10:53:30;;;;;;;;;;;;;;;33.50;27.25;98770.81;4483690;32;33994;-83
2022/06/07 10:56:03;;;;;;;;;;;;;;;34.34;25.76;98757.84;4469551;32;35251;-83
2022/06/07 10:58:30;;;;;;;;;;;;;;;34.23;26.04;98743.69;4484176;32;33495;-85
2022/06/07 11:01:09;;;;;;;;;;;;;;;33.43;26.27;98748.94;4484012;32;35166;-82
2022/06/07 11:03:42;;;;;;;;;;;;;;;33.93;26.16;98741.91;4469799;32;34433;-83
2022/06/07 11:09:21;;;;;;;;;;;;;;;33.69;26.08;98748.50;4483884;32;33650;-83
2022/06/07 11:11:59;;;;;;;;;;;;;;;34.44;27.04;98738.13;4483822;32;33949;-84
2022/06/07 11:14:34;;;;;;;;;;;;;;;34.33;25.83;98740.00;4468741;32;34450;-84
2022/06/07 11:17:16;;;;;;;;;;;;;;;33.87;25.94;98735.25;4469648;32;34555;-84
2022/06/07 11:19:44;;;;;;;;;;;;;;;34.17;26.31;98736.16;4483910;32;34441;-86
2022/06/07 11:22:14;;;;;;;;;;;;;;;33.17;26.75;98735.13;4483559;32;34928;-83
2022/06/07 11:25:01;;;;;;;;;;;;;;;33.86;26.42;98734.38;4469536;32;35166;-84
2022/06/07 11:27:28;;;;;;;;;;;;;;;32.30;28.08;98729.13;4483758;32;34977;-84
2022/06/07 11:30:14;;;;;;;;;;;;;;;32.32;28.56;98745.94;4483743;32;34255;-83
2022/06/07 11:32:49;;;;;;;;;;;;;;;33.24;26.76;98730.06;4483526;32;34695;-82
2022/06/07 11:35:35;;;;;;;;;;;;;;;33.31;25.92;98712.41;4483613;32;35109;-84
2022/06/07 11:38:12;;;;;;;;;;;;;;;33.92;25.23;98710.63;4483705;32;34485;-83
2022/06/07 11:40:39;;;;;;;;;;;;;;;33.52;26.50;98704.31;4469546;32;33589;-84
2022/06/07 11:43:26;;;;;;;;;;;;;;;33.05;26.51;98703.13;4483687;32;34309;-83
2022/06/07 11:45:54;;;;;;;;;;;;;;;32.72;27.45;98713.06;4483553;32;34934;-84
2022/06/07 11:48:22;;;;;;;;;;;;;;;33.73;25.94;98696.16;4483494;32;34292;-83
2022/06/07 11:50:54;;;;;;;;;;;;;;;33.63;25.90;98696.13;4469689;32;33747;-84
2022/06/07 11:53:22;;;;;;;;;;;;;;;32.66;26.90;98709.09;4483652;32;34253;-83
2022/06/07 11:55:53;;;;;;;;;;;;;;;33.05;26.19;98701.28;4483357;32;34405;-83
2022/06/07 11:58:41;;;;;;;;;;;;;;;33.24;25.61;98694.28;4469481;32;35118;-84
2022/06/07 12:01:27;;;;;;;;;;;;;;;33.98;25.14;98688.53;4483273;32;33598;-83
2022/06/07 12:04:13;;;;;;;;;;;;;;;33.90;24.50;98682.00;4483535;32;35190;-84
2022/06/07 12:06:41;;;;;;;;;;;;;;;33.11;25.37;98683.75;4483357;32;34214;-86
2022/06/07 12:09:11;;;;;;;;;;;;;;;32.51;25.62;98696.13;4483782;32;35271;-84
2022/06/07 12:11:40;;;;;;;;;;;;;;;32.75;26.56;98683.28;4469062;32;33385;-84
2022/06/07 12:14:17;;;;;;;;;;;;;;;33.15;25.57;98674.47;4483653;32;34627;-83
2022/06/07 12:16:57;;;;;;;;;;;;;;;33.29;25.29;98671.41;4469333;32;35359;-84
2022/06/07 12:19:31;;;;;;;;;;;;;;;33.58;25.61;98666.13;4483251;32;34515;-82
2022/06/07 12:21:59;;;;;;;;;;;;;;;34.03;24.16;98664.81;4469215;32;33836;-83
2022/06/07 12:24:26;;;;;;;;;;;;;;;34.08;24.91;98675.97;4482798;32;34736;-83
2022/06/07 12:26:53;;;;;;;;;;;;;;;34.24;24.90;98665.50;4483434;32;34572;-84
2022/06/07 12:29:21;;;;;;;;;;;;;;;34.00;25.14;98660.56;4483264;32;34564;-82
2022/06/07 12:32:03;;;;;;;;;;;;;;;34.41;23.82;98665.78;4483214;32;33795;-84
2022/06/07 12:34:32;;;;;;;;;;;;;;;34.62;23.39;98666.47;4469228;32;35067;-84
2022/06/07 12:37:01;;;;;;;;;;;;;;;34.82;23.13;98661.88;4483138;32;34105;-83
2022/06/07 12:39:28;;;;;;;;;;;;;;;35.08;23.58;98659.37;4469050;32;34536;-85
2022/06/07 12:42:06;;;;;;;;;;;;;;;33.97;24.82;98657.25;4483132;32;33584;-84
2022/06/07 12:44:37;;;;;;;;;;;;;;;34.40;24.65;98662.25;4483279;32;34977;-83
2022/06/07 12:47:07;;;;;;;;;;;;;;;34.04;24.38;98663.81;4483350;32;34546;-83
2022/06/07 12:49:42;;;;;;;;;;;;;;;34.53;24.99;98662.81;4482854;32;35280;-83
2022/06/07 12:52:17;;;;;;;;;;;;;;;34.97;24.95;98654.19;4483092;32;34390;-83
2022/06/07 12:54:49;;;;;;;;;;;;;;;34.60;24.86;98657.69;4483041;32;34140;-83
2022/06/07 12:57:21;;;;;;;;;;;;;;;35.02;25.23;98643.84;4482922;32;34463;-82
2022/06/07 12:59:53;;;;;;;;;;;;;;;35.25;23.66;98647.84;4469008;32;33929;-85
2022/06/07 13:02:22;;;;;;;;;;;;;;;35.21;23.95;98641.03;4483075;32;33584;-84
2022/06/07 13:04:50;;;;;;;;;;;;;;;34.62;23.31;98639.53;4468703;32;34990;-85
2022/06/07 13:07:29;;;;;;;;;;;;;;;34.64;24.41;98637.56;4468805;32;35182;-84
2022/06/07 13:10:09;;;;;;;;;;;;;;;34.78;23.50;98638.94;4470299;32;34065;-84
2022/06/07 13:12:42;;;;;;;;;;;;;;;34.78;24.16;98636.25;4479649;32;34024;-83
2022/06/07 13:15:16;;;;;;;;;;;;;;;35.12;24.29;98633.00;4469187;32;34194;-83
2022/06/07 13:17:53;;;;;;;;;;;;;;;34.79;24.89;98638.78;4482645;32;34382;-83
2022/06/07 13:20:26;;;;;;;;;;;;;;;33.82;25.74;98636.16;4482830;32;34302;-82
2022/06/07 13:22:54;;;;;;;;;;;;;;;34.39;25.29;98642.53;4482790;32;33638;-83
2022/06/07 13:25:24;;;;;;;;;;;;;;;34.21;25.09;98635.34;4482475;32;35114;-84
2022/06/07 13:28:03;;;;;;;;;;;;;;;34.58;25.65;98632.75;4482600;32;34724;-83